Terminal Aerodrome Forecast
Issued by NWS Melbourne, FL

Home | Current Version | Previous Version | Text Only | Print | Product List | Glossary On
Versions: 1 2 3 4 5 6 7 8 9 10 11 12
000
FTUS42 KMLB 022300 RRA
TAFDAB
TAF
KDAB 022342Z 0300/0324 12005KT P6SM FEW035 SCT150 BKN250
     FM030200 VRB02KT P6SM FEW120 SCT250
     FM031400 11004KT P6SM SCT030 SCT250
     FM031700 09009KT P6SM SCT035 SCT250=

USA.gov is the U.S. government's official web portal to all federal, state and local government web resources and services.